sensor_id;sensor_type;location;lat;lon;timestamp;pressure;altitude;pressure_sealevel;temperature
77385;BMP280;66444;49.680;18.538;2023-05-29T13:59:42;97504.52120527627;;;31.50815531015396
77385;BMP280;66444;49.680;18.538;2023-05-29T14:04:44;97506.74381741975;;;31.46765037421137
77385;BMP280;66444;49.680;18.538;2023-05-29T14:09:45;97500.7204957857;;;31.113216294022276
77385;BMP280;66444;49.680;18.538;2023-05-29T14:14:47;97499.47948060922;;;31.123343377839774
77385;BMP280;66444;49.680;18.538;2023-05-29T14:19:48;97493.0313765965;;;30.8954783603549
77385;BMP280;66444;49.680;18.538;2023-05-29T14:24:49;97498.594190034;;;31.26512010656297
77385;BMP280;66444;49.680;18.538;2023-05-29T14:29:51;97488.72277823045;;;30.829648494208232
77385;BMP280;66444;49.680;18.538;2023-05-29T14:34:52;97484.49307756881;;;31.133470438374207
77385;BMP280;66444;49.680;18.538;2023-05-29T14:39:54;97485.33568188443;;;31.619541963143273
77385;BMP280;66444;49.680;18.538;2023-05-29T14:45:00;97474.78224089004;;;31.17904192265123
77385;BMP280;66444;49.680;18.538;2023-05-29T14:50:03;97479.63511176457;;;31.710674401931463
77385;BMP280;66444;49.680;18.538;2023-05-29T14:55:06;97481.56576635805;;;31.224612935446203
77385;BMP280;66444;49.680;18.538;2023-05-29T15:00:08;97473.55658243065;;;32.09543501837179
77385;BMP280;66444;49.680;18.538;2023-05-29T15:05:10;97481.97989485254;;;31.892933621723206
77385;BMP280;66444;49.680;18.538;2023-05-29T15:10:11;97480.88022173838;;;31.700548668531702
77385;BMP280;66444;49.680;18.538;2023-05-29T15:15:12;97485.45548038081;;;31.417018680414184
77385;BMP280;66444;49.680;18.538;2023-05-29T15:20:14;97477.20167447145;;;31.842306817369536
77385;BMP280;66444;49.680;18.538;2023-05-29T15:25:15;97480.67887861101;;;31.791679430939258
77385;BMP280;66444;49.680;18.538;2023-05-29T15:30:19;97487.49012185345;;;31.46765037421137
77385;BMP280;66444;49.680;18.538;2023-05-29T15:35:21;97478.46232562746;;;31.09296205653809
77385;BMP280;66444;49.680;18.538;2023-05-29T15:40:22;97479.70347488251;;;31.0828349028714
77385;BMP280;66444;49.680;18.538;2023-05-29T15:45:29;97477.9290224142;;;31.052453302172943
77385;BMP280;66444;49.680;18.538;2023-05-29T15:50:30;97483.07322789931;;;31.234739763149992
77385;BMP280;66444;49.680;18.538;2023-05-29T15:55:37;97484.40002447605;;;31.02207149192691
77385;BMP280;66444;49.680;18.538;2023-05-29T16:00:39;97481.18086433495;;;30.77900946624577
77385;BMP280;66444;49.680;18.538;2023-05-29T16:05:40;97487.62596217405;;;30.49035589210689
77385;BMP280;66444;49.680;18.538;2023-05-29T16:10:42;97490.3698729217;;;29.88260234054178
77385;BMP280;66444;49.680;18.538;2023-05-29T16:15:43;97487.94878023154;;;29.755976467160508
77385;BMP280;66444;49.680;18.538;2023-05-29T16:20:45;97491.12505717325;;;29.88766729980707
77385;BMP280;66444;49.680;18.538;2023-05-29T16:25:46;97495.22373192768;;;29.78636700855568
77385;BMP280;66444;49.680;18.538;2023-05-29T16:30:48;97491.64574182323;;;29.725585716217758
77385;BMP280;66444;49.680;18.538;2023-05-29T16:35:49;97489.69214465423;;;29.583759441133587
77385;BMP280;66444;49.680;18.538;2023-05-29T16:40:56;97491.36714404673;;;29.705325099173933
77385;BMP280;66444;49.680;18.538;2023-05-29T16:45:57;97492.2881250131;;;29.178516366612165
77385;BMP280;66444;49.680;18.538;2023-05-29T16:50:59;97494.80861205616;;;28.773236039187758
77385;BMP280;66444;49.680;18.538;2023-05-29T16:56:00;97495.97547563181;;;28.231115367403255
77385;BMP280;66444;49.680;18.538;2023-05-29T17:01:02;97498.40278123788;;;27.972697950480505
77385;BMP280;66444;49.680;18.538;2023-05-29T17:06:04;97503.87328720524;;;27.972697950480505
77385;BMP280;66444;49.680;18.538;2023-05-29T17:11:05;97503.071237897;;;27.729467727942392
77385;BMP280;66444;49.680;18.538;2023-05-29T17:16:07;97500.26844026215;;;27.491291806846856
77385;BMP280;66444;49.680;18.538;2023-05-29T17:21:09;97502.58903955182;;;27.324054221389815
77385;BMP280;66444;49.680;18.538;2023-05-29T17:26:10;97500.20291710885;;;27.070651862304658
77385;BMP280;66444;49.680;18.538;2023-05-29T17:31:11;97485.44275496995;;;26.22418251358904
77385;BMP280;66444;49.680;18.538;2023-05-29T17:36:13;97491.69855118664;;;25.083473102468997
77385;BMP280;66444;49.680;18.538;2023-05-29T17:41:14;97502.80389446557;;;24.06926179891452
77385;BMP280;66444;49.680;18.538;2023-05-29T17:46:15;97496.61585665183;;;23.394682384096086
77385;BMP280;66444;49.680;18.538;2023-05-29T17:51:17;97501.22921014551;;;22.973652075696737
77385;BMP280;66444;49.680;18.538;2023-05-29T17:56:18;97500.75958937431;;;22.537361504836007
77385;BMP280;66444;49.680;18.538;2023-05-29T18:01:20;97513.75600032348;;;22.101027883589268
77385;BMP280;66444;49.680;18.538;2023-05-29T18:06:21;97496.72278063788;;;21.73569220844656
77385;BMP280;66444;49.680;18.538;2023-05-29T18:11:23;97505.05539826714;;;21.431222762260585
77385;BMP280;66444;49.680;18.538;2023-05-29T18:16:24;97504.87244579488;;;21.106432256195696
77385;BMP280;66444;49.680;18.538;2023-05-29T18:21:35;97508.57911690396;;;20.735938978474586
77385;BMP280;66444;49.680;18.538;2023-05-29T18:26:36;97518.4404364012;;;20.33495925059542
77385;BMP280;66444;49.680;18.538;2023-05-29T18:31:38;97516.24881237444;;;19.944095948711038
77385;BMP280;66444;49.680;18.538;2023-05-29T18:36:44;97524.71321061965;;;19.624273032136262
77385;BMP280;66444;49.680;18.538;2023-05-29T18:41:46;97526.66068815978;;;19.207960980711505
77385;BMP280;66444;49.680;18.538;2023-05-29T18:46:47;97530.75278659834;;;18.913472726661713
77385;BMP280;66444;49.680;18.538;2023-05-29T18:51:49;97536.37957668246;;;18.558029791293666
77385;BMP280;66444;49.680;18.538;2023-05-29T18:56:50;97534.2428985001;;;18.222871757205574
77385;BMP280;66444;49.680;18.538;2023-05-29T19:01:52;97533.59477930811;;;17.897845812793822
77385;BMP280;66444;49.680;18.538;2023-05-29T19:06:54;97541.36284280052;;;17.522004843736067
77385;BMP280;66444;49.680;18.538;2023-05-29T19:11:55;97548.29489677983;;;17.247722398396583
77385;BMP280;66444;49.680;18.538;2023-05-29T19:16:56;97554.43157326087;;;17.0750173360575
77385;BMP280;66444;49.680;18.538;2023-05-29T19:21:58;97558.24613263001;;;16.88706594617106
77385;BMP280;66444;49.680;18.538;2023-05-29T19:27:00;97553.61286716042;;;16.749907200084998
77385;BMP280;66444;49.680;18.538;2023-05-29T19:32:02;97561.67208770118;;;16.749907200084998
77385;BMP280;66444;49.680;18.538;2023-05-29T19:37:04;97565.07731518832;;;16.5771827429533
77385;BMP280;66444;49.680;18.538;2023-05-29T19:42:07;97578.45278599052;;;16.43493401994929
77385;BMP280;66444;49.680;18.538;2023-05-29T19:47:09;97582.66163255861;;;16.409531982056798
77385;BMP280;66444;49.680;18.538;2023-05-29T19:52:10;97593.71068339387;;;16.252036099135875
77385;BMP280;66444;49.680;18.538;2023-05-29T19:57:12;97590.22009354242;;;16.175826405687257
77385;BMP280;66444;49.680;18.538;2023-05-29T20:02:14;97593.19737916549;;;16.01832222235389
77385;BMP280;66444;49.680;18.538;2023-05-29T20:07:16;97597.6779075351;;;15.835407118638978
77385;BMP280;66444;49.680;18.538;2023-05-29T20:12:23;97596.85760959922;;;15.759190265648067
77385;BMP280;66444;49.680;18.538;2023-05-29T20:17:25;97596.13804006323;;;15.825244947243482
77385;BMP280;66444;49.680;18.538;2023-05-29T20:22:27;97601.84982887133;;;15.774433741020038
77385;BMP280;66444;49.680;18.538;2023-05-29T20:27:29;97599.45966898577;;;15.65248447121121
77385;BMP280;66444;49.680;18.538;2023-05-29T20:32:32;97608.58850663324;;;15.571183095360174
77385;BMP280;66444;49.680;18.538;2023-05-29T20:37:39;97608.12843362072;;;15.479717266373337
77385;BMP280;66444;49.680;18.538;2023-05-29T20:42:41;97605.72266260188;;;15.357759894058109
77385;BMP280;66444;49.680;18.538;2023-05-29T20:47:43;97604.18175489327;;;15.347596628358588
77385;BMP280;66444;49.680;18.538;2023-05-29T20:52:45;97602.57474551398;;;15.266289664572104
77385;BMP280;66444;49.680;18.538;2023-05-29T20:57:48;97595.60601237189;;;15.184981210669502
77385;BMP280;66444;49.680;18.538;2023-05-29T21:02:55;97592.05047102793;;;15.073179653473199
77385;BMP280;66444;49.680;18.538;2023-05-29T21:07:57;97603.13412993195;;;15.057933768304064
77385;BMP280;66444;49.680;18.538;2023-05-29T21:12:59;97599.97630174128;;;14.966457357164472
77385;BMP280;66444;49.680;18.538;2023-05-29T21:18:01;97589.79819146176;;;14.758087380463257
77385;BMP280;66444;49.680;18.538;2023-05-29T21:23:04;97591.17340624215;;;14.625945252180099
77385;BMP280;66444;49.680;18.538;2023-05-29T21:28:06;97583.376093287;;;14.50396441053599
77385;BMP280;66444;49.680;18.538;2023-05-29T21:33:08;97577.48047864417;;;14.376897468604147
77385;BMP280;66444;49.680;18.538;2023-05-29T21:38:11;97580.0637514777;;;14.305738392053172
77385;BMP280;66444;49.680;18.538;2023-05-29T21:43:13;97571.62740971742;;;14.285407017776743
77385;BMP280;66444;49.680;18.538;2023-05-29T21:48:15;97573.84648595974;;;14.22949525830336
77385;BMP280;66444;49.680;18.538;2023-05-29T21:53:17;97568.4955328688;;;14.22949525830336
77385;BMP280;66444;49.680;18.538;2023-05-29T21:58:19;97558.51768836312;;;14.19899763809517
77385;BMP280;66444;49.680;18.538;2023-05-29T22:03:23;97565.62652265838;;;14.087171237869189
77385;BMP280;66444;49.680;18.538;2023-05-29T22:08:25;97568.92153132228;;;13.985508429305629
77385;BMP280;66444;49.680;18.538;2023-05-29T22:13:27;97572.51679555948;;;13.83300985088572
77385;BMP280;66444;49.680;18.538;2023-05-29T22:18:30;97560.88840306188;;;13.721174230566248
77385;BMP280;66444;49.680;18.538;2023-05-29T22:23:33;97572.06970653497;;;13.548331821430475
77385;BMP280;66444;49.680;18.538;2023-05-29T22:28:35;97566.78501529305;;;13.35514704841189
77385;BMP280;66444;49.680;18.538;2023-05-29T22:33:37;97576.93076299578;;;13.263635538052768
77385;BMP280;66444;49.680;18.538;2023-05-29T22:38:39;97570.87815767356;;;13.294139584386722
77385;BMP280;66444;49.680;18.538;2023-05-29T22:43:42;97569.87304830588;;;13.3754826834891
77385;BMP280;66444;49.680;18.538;2023-05-29T22:48:44;97561.97682709916;;;13.446656672842801
77385;BMP280;66444;49.680;18.538;2023-05-29T22:53:46;97558.769986273;;;13.35514704841189
77385;BMP280;66444;49.680;18.538;2023-05-29T22:58:53;97565.53532408037;;;13.294139584386722
77385;BMP280;66444;49.680;18.538;2023-05-29T23:03:56;97570.75341060938;;;13.222963150311262
77385;BMP280;66444;49.680;18.538;2023-05-29T23:09:03;97566.70098557022;;;13.090775317372755
77385;BMP280;66444;49.680;18.538;2023-05-29T23:14:05;97570.36627705982;;;13.009427002863958
77385;BMP280;66444;49.680;18.538;2023-05-29T23:19:07;97569.7900018569;;;13.11111216316931
77385;BMP280;66444;49.680;18.538;2023-05-29T23:24:09;97573.65131366547;;;13.136533089447767
77385;BMP280;66444;49.680;18.538;2023-05-29T23:29:12;97572.29773768508;;;13.233131282171234
77385;BMP280;66444;49.680;18.538;2023-05-29T23:34:15;97574.84182053096;;;13.161953870207071
77385;BMP280;66444;49.680;18.538;2023-05-29T23:39:17;97574.00519244595;;;13.121280551142991
77385;BMP280;66444;49.680;18.538;2023-05-29T23:44:19;97571.46242636355;;;13.192458615032956
77385;BMP280;66444;49.680;18.538;2023-05-29T23:49:22;97569.56362304286;;;13.197542718797923
77385;BMP280;66444;49.680;18.538;2023-05-29T23:54:24;97573.96655785965;;;13.314475498860702
77385;BMP280;66444;49.680;18.538;2023-05-29T23:59:26;97577.51267150603;;;13.161953870207071
